Terminal Aerodrome Forecast
Issued by NWS Sterling, VA

Current Version | Previous Version | Graphics & Text | Print | Product List | Glossary On
Versions: 1 2 3 4 5 6 7 8 9 10 11 12 13 14 15 16 17 18 19 20 21 22 23 24 25 26
076
FTUS41 KLWX 212102 AAA
TAFDCA
TAF AMD
KDCA 212102Z 2121/2218 18006KT P6SM OVC007
     FM212300 15004KT P6SM OVC003
     FM220300 14004KT 2SM -DZ OVC003
     FM221500 08005KT 5SM -RA OVC008=

USA.gov is the U.S. government's official web portal to all federal, state and local government web resources and services.